Ransomville, NY (14131)

10:46 AM EST on March 01, 2015 (GMT -0500)
KNYRANSO3 | Change Station
CLOSE
Current Station
Personal Weather Station
Location: Ransomville, NY
Elevation: 246 ft
Nearby Weather Stations

Elev 246 ft 43.29 °N, 78.93 °W | Updated 5 minutes ago

Snow
Snow
29.1 °F
Feels Like 29 °F
N
0.0
Wind Variable Wind from NW

Today
High -- | Low -- °F
--% Chance of Precip.
Yesterday
High -- | Low -- °F
Precip. -- in
6:52 AM 6:04 PM
Waxing Gibbous, 85% visible
Pressure 30.45 in
Visibility 6.0 miles
Clouds Scattered Clouds 2700 ft
Overcast 3800 ft
Windchill 29 °F
Dew Point 21 °F
Humidity 72%
Rainfall 0.00 in
Snow Depth Not available.
UV 1 out of 12
Pollen .40 out of 12
Air Quality Not available.
Flu Activity Not available.
METAR KIAG 011453Z COR 20005KT 6SM -SN SCT027 OVC038 M07/M09 A3038 RMK AO2 SNE49 SLP312 P0000 60001 T10671089 58018 COR 1454

More Conditions Fewer Conditions

Pressure 30.45 in
Visibility 6.0 miles
Clouds Scattered Clouds 2700 ft
Overcast 3800 ft
Windchill 29 °F
Dew Point 21 °F
Humidity 72%
Rainfall 0.00 in
Snow Depth Not available.
UV 1 out of 12
Pollen .40 out of 12
Air Quality Not available.
Flu Activity Not available.
METAR KIAG 011453Z COR 20005KT 6SM -SN SCT027 OVC038 M07/M09 A3038 RMK AO2 SNE49 SLP312 P0000 60001 T10671089 58018 COR 1454

More Conditions Fewer Conditions

10-Day Weather Forecast

Almanac

Astronomy

Mar. 01, 2015 Rise Set
Actual Time
Civil Twilight
Nautical Twilight
Astronomical Twilight
Moon
Length of Visible Light
Length of Day
Tomorrow will be .
, % of the Moon is Illuminated

Today's Extremes

State Highs State Lows

Community

WunderPhotos

Upload Photos

1,801,435 photos uploaded!

WunderBlogs® & News

Nearby

Air Quality

  Air Quality AQ Index Pollutant
Not available.

Snow Depth

Station Depth Elevation

Earthquake Activity

City Distance Mag. Time & Date
Minimum magnitude displayed is 2.5.

Coastal Water Temperatures

Place Temperature

Nearby Weather Stations